createdAt,value
2023-03-03T00:00:11.240Z,94799.88
2023-03-03T00:02:41.403Z,94796.16
2023-03-03T00:05:08.777Z,94796.16
2023-03-03T00:07:35.603Z,94794.28
2023-03-03T00:10:03.095Z,94785.19
2023-03-03T00:12:31.243Z,94791.84
2023-03-03T00:14:58.076Z,94797.63
2023-03-03T00:17:27.763Z,94789.06
2023-03-03T00:19:55.637Z,94777.75
2023-03-03T00:22:40.513Z,94798.50
2023-03-03T00:25:19.755Z,94793.09
2023-03-03T00:27:47.101Z,94807.53
2023-03-03T00:30:25.609Z,94809.94
2023-03-03T00:32:56.802Z,94804.22
2023-03-03T00:35:30.436Z,94812.72
2023-03-03T00:38:00.167Z,94800.84
2023-03-03T00:40:46.905Z,94795.72
2023-03-03T00:43:21.593Z,94804.28
2023-03-03T00:45:51.410Z,94802.34
2023-03-03T00:48:31.600Z,94799.78
2023-03-03T00:51:00.830Z,94794.91
2023-03-03T00:53:30.186Z,94807.69
2023-03-03T00:55:57.999Z,94801.13
2023-03-03T00:58:26.058Z,94818.34
2023-03-03T01:00:54.811Z,94804.28
2023-03-03T01:03:27.374Z,94796.72
2023-03-03T01:05:54.995Z,94805.66
2023-03-03T01:08:22.678Z,94801.84
2023-03-03T01:10:56.229Z,94802.03
2023-03-03T01:13:28.398Z,94803.84
2023-03-03T01:15:55.968Z,94787.81
2023-03-03T01:18:22.893Z,94794.88
2023-03-03T01:20:50.803Z,94799.16
2023-03-03T01:23:18.420Z,94802.78
2023-03-03T01:25:45.200Z,94816.03
2023-03-03T01:28:12.400Z,94806.28
2023-03-03T01:30:39.620Z,94810.06
2023-03-03T01:33:06.406Z,94808.78
2023-03-03T01:35:33.193Z,94806.81
2023-03-03T01:37:59.894Z,94801.00
2023-03-03T01:40:30.311Z,94807.16
2023-03-03T01:42:59.817Z,94783.34
2023-03-03T01:45:30.190Z,94790.56
2023-03-03T01:48:01.777Z,94792.06
2023-03-03T01:50:54.821Z,94782.09
2023-03-03T01:53:59.587Z,94785.38
2023-03-03T01:56:27.321Z,94773.00
2023-03-03T01:59:26.349Z,94781.19
2023-03-03T02:01:54.114Z,94784.72
2023-03-03T02:04:22.081Z,94798.69
2023-03-03T02:06:56.543Z,94791.00
2023-03-03T02:09:38.622Z,94798.69
2023-03-03T02:12:09.527Z,94783.69
2023-03-03T02:14:36.922Z,94787.63
2023-03-03T02:17:04.127Z,94778.72
2023-03-03T02:19:32.181Z,94780.25
2023-03-03T02:22:02.323Z,94774.63
2023-03-03T02:24:37.819Z,94774.19
2023-03-03T02:27:05.045Z,94772.13
2023-03-03T02:29:31.989Z,94772.06
2023-03-03T02:31:59.433Z,94780.53
2023-03-03T02:34:26.689Z,94790.47
2023-03-03T02:36:53.535Z,94780.00
2023-03-03T02:39:23.772Z,94788.13
2023-03-03T02:42:18.823Z,94799.63
2023-03-03T02:44:50.726Z,94801.06
2023-03-03T02:47:18.329Z,94801.25
2023-03-03T02:49:45.284Z,94798.84
2023-03-03T02:52:14.880Z,94768.31
2023-03-03T02:54:45.076Z,94783.69
2023-03-03T02:57:12.112Z,94784.03
2023-03-03T02:59:38.799Z,94786.00
2023-03-03T03:02:13.073Z,94795.06
2023-03-03T03:04:40.426Z,94797.31
2023-03-03T03:07:07.445Z,94783.97
2023-03-03T03:09:36.851Z,94779.78
2023-03-03T03:12:05.351Z,94774.34
2023-03-03T03:14:34.381Z,94782.63
2023-03-03T03:17:01.633Z,94782.34
2023-03-03T03:19:29.245Z,94776.41
2023-03-03T03:22:00.864Z,94768.44
2023-03-03T03:24:28.655Z,94773.81
2023-03-03T03:27:00.528Z,94774.69
2023-03-03T03:29:28.466Z,94776.63
2023-03-03T03:31:55.602Z,94771.91
2023-03-03T03:34:22.533Z,94780.66
2023-03-03T03:36:51.032Z,94781.28
2023-03-03T03:39:19.060Z,94795.16
2023-03-03T03:41:47.885Z,94783.16
2023-03-03T03:44:15.088Z,94790.06
2023-03-03T03:46:42.585Z,94784.63
2023-03-03T03:49:10.493Z,94773.34
2023-03-03T03:51:41.386Z,94781.31
2023-03-03T03:54:11.050Z,94763.97
2023-03-03T03:56:39.099Z,94783.88
2023-03-03T03:59:07.706Z,94784.66
2023-03-03T04:01:35.153Z,94766.41
2023-03-03T04:04:03.093Z,94788.44
2023-03-03T04:06:29.959Z,94786.75
2023-03-03T04:08:57.717Z,94798.91
2023-03-03T04:11:26.363Z,94807.97
2023-03-03T04:13:53.409Z,94810.88
2023-03-03T04:16:20.759Z,94818.84
2023-03-03T04:18:47.550Z,94823.31
2023-03-03T04:21:16.882Z,94796.66
2023-03-03T04:23:45.493Z,94797.72
2023-03-03T04:26:12.885Z,94797.25
2023-03-03T04:28:40.827Z,94792.19
2023-03-03T04:31:08.322Z,94793.97
2023-03-03T04:33:35.187Z,94790.34
2023-03-03T04:36:04.461Z,94793.16
2023-03-03T04:38:31.413Z,94799.06
2023-03-03T04:40:58.393Z,94793.06
2023-03-03T04:43:28.206Z,94800.97
2023-03-03T04:45:56.436Z,94805.78
2023-03-03T04:48:23.556Z,94798.72
2023-03-03T04:50:50.391Z,94792.84
2023-03-03T04:53:17.237Z,94797.44
2023-03-03T04:55:44.571Z,94803.88
2023-03-03T04:58:11.686Z,94804.25
2023-03-03T05:00:39.824Z,94813.47
2023-03-03T05:03:10.881Z,94796.00
2023-03-03T05:05:40.964Z,94800.88
2023-03-03T05:08:08.272Z,94786.50
2023-03-03T05:10:35.254Z,94787.34
2023-03-03T05:13:02.075Z,94793.34
2023-03-03T05:15:28.969Z,94800.41
2023-03-03T05:17:56.639Z,94801.47
2023-03-03T05:20:24.860Z,94807.03
2023-03-03T05:22:52.459Z,94800.22
2023-03-03T05:25:20.979Z,94797.09
2023-03-03T05:27:47.730Z,94799.50
2023-03-03T05:30:14.980Z,94790.13
2023-03-03T05:32:41.762Z,94794.38
2023-03-03T05:35:08.912Z,94785.06
2023-03-03T05:37:35.671Z,94784.94
2023-03-03T05:40:02.480Z,94773.72
2023-03-03T05:42:29.586Z,94762.72
2023-03-03T05:44:56.498Z,94770.91
2023-03-03T05:47:23.701Z,94779.31
2023-03-03T05:49:50.470Z,94781.44
2023-03-03T05:52:17.166Z,94766.84
2023-03-03T05:54:43.893Z,94782.56
2023-03-03T05:57:10.660Z,94780.41
2023-03-03T05:59:37.606Z,94799.91
2023-03-03T06:02:04.578Z,94810.41
2023-03-03T06:04:31.306Z,94809.63
2023-03-03T06:06:58.764Z,94806.31
2023-03-03T06:09:26.413Z,94805.00
2023-03-03T06:11:53.656Z,94807.34
2023-03-03T06:14:21.218Z,94810.47
2023-03-03T06:16:48.710Z,94814.47
2023-03-03T06:19:15.772Z,94810.06
2023-03-03T06:21:43.179Z,94814.44
2023-03-03T06:24:10.332Z,94810.53
2023-03-03T06:26:37.089Z,94826.13
2023-03-03T06:29:04.052Z,94838.09
2023-03-03T06:31:30.828Z,94841.28
2023-03-03T06:33:57.662Z,94806.69
2023-03-03T06:36:25.610Z,94826.53
2023-03-03T06:38:53.286Z,94836.53
2023-03-03T06:41:20.036Z,94825.19
2023-03-03T06:43:46.784Z,94842.47
2023-03-03T06:46:14.414Z,94839.25
2023-03-03T06:48:42.019Z,94852.25
2023-03-03T06:51:33.623Z,94858.19
2023-03-03T06:54:06.644Z,94855.44
2023-03-03T06:56:37.255Z,94849.06
2023-03-03T06:59:13.012Z,94840.13
2023-03-03T07:01:39.889Z,94849.38
2023-03-03T07:04:29.437Z,94848.19
2023-03-03T07:06:59.793Z,94857.16
2023-03-03T07:09:29.630Z,94852.81
2023-03-03T07:12:16.522Z,94858.22
2023-03-03T07:14:51.653Z,94861.38
2023-03-03T07:17:20.841Z,94872.28
2023-03-03T07:19:48.243Z,94865.44
2023-03-03T07:22:16.748Z,94876.25
2023-03-03T07:24:46.303Z,94862.63
2023-03-03T07:27:23.162Z,94847.16
2023-03-03T07:29:52.699Z,94875.56
2023-03-03T07:32:31.281Z,94870.97
2023-03-03T07:34:58.314Z,94865.25
2023-03-03T07:37:41.276Z,94873.38
2023-03-03T07:40:26.558Z,94878.56
2023-03-03T07:42:53.367Z,94845.13
2023-03-03T07:45:34.956Z,94862.88
2023-03-03T07:48:15.985Z,94887.25
2023-03-03T07:50:42.753Z,94882.22
2023-03-03T07:53:21.917Z,94877.34
2023-03-03T07:55:48.688Z,94878.66
2023-03-03T07:58:22.367Z,94885.59
2023-03-03T08:01:27.507Z,94873.75
2023-03-03T08:03:55.973Z,94894.59
2023-03-03T08:06:35.571Z,94896.84
2023-03-03T08:09:26.631Z,94894.13
2023-03-03T08:12:23.344Z,94898.53
2023-03-03T08:14:52.569Z,94887.13
2023-03-03T08:17:25.147Z,94902.44
2023-03-03T08:19:54.120Z,94891.06
2023-03-03T08:22:33.913Z,94901.16
2023-03-03T08:25:00.624Z,94889.72
2023-03-03T08:27:28.117Z,94895.97
2023-03-03T08:29:55.520Z,94892.63
2023-03-03T08:32:22.886Z,94909.03
2023-03-03T08:34:49.712Z,94908.28
2023-03-03T08:37:17.082Z,94902.28
2023-03-03T08:39:44.274Z,94887.81
2023-03-03T08:42:11.034Z,94904.31
2023-03-03T08:44:37.844Z,94894.19
2023-03-03T08:47:04.597Z,94889.19
2023-03-03T08:49:31.860Z,94895.00
2023-03-03T08:52:00.846Z,94883.81
2023-03-03T08:54:27.890Z,94895.78
2023-03-03T08:56:54.599Z,94889.94
2023-03-03T08:59:22.316Z,94897.72
2023-03-03T09:01:49.181Z,94902.72
2023-03-03T09:04:16.005Z,94896.03
2023-03-03T09:06:42.762Z,94887.94
2023-03-03T09:09:09.660Z,94899.19
2023-03-03T09:11:36.513Z,94866.66
2023-03-03T09:14:15.232Z,94901.22
2023-03-03T09:16:49.857Z,94895.81
2023-03-03T09:19:25.717Z,94894.88
2023-03-03T09:21:57.421Z,94886.59
2023-03-03T09:24:35.893Z,94902.25
2023-03-03T09:27:03.042Z,94916.47
2023-03-03T09:29:37.336Z,94923.28
2023-03-03T09:32:26.945Z,94927.25
2023-03-03T09:34:54.138Z,94930.06
2023-03-03T09:37:28.833Z,94926.59
2023-03-03T09:39:58.082Z,94917.72
2023-03-03T09:42:56.980Z,94927.41
2023-03-03T09:45:42.144Z,94924.75
2023-03-03T09:48:18.033Z,94911.91
2023-03-03T09:51:25.057Z,94914.13
2023-03-03T09:54:07.931Z,94937.47
2023-03-03T09:56:44.794Z,94919.78
2023-03-03T09:59:20.684Z,94930.72
2023-03-03T10:01:56.649Z,94935.19
2023-03-03T10:04:35.281Z,94931.13
2023-03-03T10:07:38.927Z,94934.25
2023-03-03T10:10:28.522Z,94944.13
2023-03-03T10:13:07.189Z,94927.56
2023-03-03T10:15:43.191Z,94942.69
2023-03-03T10:18:19.877Z,94939.97
2023-03-03T10:20:58.554Z,94954.19
2023-03-03T10:23:34.490Z,94964.13
2023-03-03T10:26:08.362Z,94953.94
2023-03-03T10:28:38.519Z,94943.78
2023-03-03T10:31:20.087Z,94949.47
2023-03-03T10:33:54.945Z,94947.03
2023-03-03T10:36:24.798Z,94957.75
2023-03-03T10:39:05.967Z,94964.34
2023-03-03T10:41:35.527Z,94958.75
2023-03-03T10:44:16.889Z,94953.31
2023-03-03T10:46:49.598Z,94955.25
2023-03-03T10:49:33.969Z,94958.13
2023-03-03T10:52:09.571Z,94953.28
2023-03-03T10:54:45.519Z,94960.50
2023-03-03T10:57:31.124Z,94930.78
2023-03-03T11:00:23.787Z,94952.44
2023-03-03T11:03:32.059Z,94963.09
2023-03-03T11:06:02.609Z,94964.72
2023-03-03T11:08:29.904Z,94969.50
2023-03-03T11:11:22.066Z,94960.81
2023-03-03T11:14:02.358Z,94938.81
2023-03-03T11:16:54.370Z,94958.06
2023-03-03T11:19:41.033Z,94957.72
2023-03-03T11:22:29.926Z,94957.44
2023-03-03T11:25:15.060Z,94948.84
2023-03-03T11:27:54.590Z,94943.91
2023-03-03T11:30:35.525Z,94962.88
2023-03-03T11:33:17.718Z,94963.50
2023-03-03T11:35:51.439Z,94949.63
2023-03-03T11:38:28.866Z,94970.81
2023-03-03T11:41:00.226Z,94963.25
2023-03-03T11:43:37.888Z,94964.34
2023-03-03T11:46:30.392Z,94939.56
2023-03-03T11:49:06.774Z,94943.94
2023-03-03T11:51:42.801Z,94957.22
2023-03-03T11:54:29.168Z,94960.09
2023-03-03T11:57:15.325Z,94951.97
2023-03-03T11:59:51.710Z,94935.03
2023-03-03T12:02:44.187Z,94935.13
2023-03-03T12:05:40.084Z,94931.88
2023-03-03T12:08:35.955Z,94942.63
2023-03-03T12:11:12.022Z,94929.50
2023-03-03T12:14:06.844Z,94936.69
2023-03-03T12:16:56.619Z,94915.00
2023-03-03T12:19:41.679Z,94917.63
2023-03-03T12:22:26.772Z,94912.06
2023-03-03T12:25:19.577Z,94931.00
2023-03-03T12:28:19.497Z,94933.00
2023-03-03T12:31:07.793Z,94922.09
2023-03-03T12:33:57.123Z,94936.34
2023-03-03T12:36:50.809Z,94909.38
2023-03-03T12:39:35.470Z,94911.38
2023-03-03T12:42:18.261Z,94924.00
2023-03-03T12:44:55.980Z,94925.31
2023-03-03T12:47:33.228Z,94924.28
2023-03-03T12:50:19.621Z,94948.53
2023-03-03T12:53:20.519Z,94935.00
2023-03-03T12:56:13.276Z,94931.16
2023-03-03T12:58:57.083Z,94939.69
2023-03-03T13:01:43.559Z,94909.63
2023-03-03T13:04:19.928Z,94911.63
2023-03-03T13:07:04.930Z,94918.19
2023-03-03T13:09:40.300Z,94921.63
2023-03-03T13:12:34.586Z,94949.41
2023-03-03T13:15:21.351Z,94952.19
2023-03-03T13:18:15.750Z,94936.88
2023-03-03T13:20:50.544Z,94936.00
2023-03-03T13:23:42.658Z,94931.72
2023-03-03T13:26:32.101Z,94947.38
2023-03-03T13:29:37.212Z,94952.72
2023-03-03T13:32:11.843Z,94955.97
2023-03-03T13:34:55.880Z,94931.44
2023-03-03T13:37:42.513Z,94928.41
2023-03-03T13:40:43.661Z,94935.69
2023-03-03T13:43:18.969Z,94917.31
2023-03-03T13:46:17.216Z,94937.41
2023-03-03T13:48:52.706Z,94940.84
2023-03-03T13:51:42.426Z,94928.84
2023-03-03T13:54:37.006Z,94912.22
2023-03-03T13:57:06.581Z,94915.13
2023-03-03T13:59:57.842Z,94919.28
2023-03-03T14:03:09.220Z,94897.34
2023-03-03T14:05:44.324Z,94894.50
2023-03-03T14:08:13.875Z,94909.69
2023-03-03T14:11:07.526Z,94915.78
2023-03-03T14:14:04.110Z,94891.47
2023-03-03T14:16:48.020Z,94903.66
2023-03-03T14:19:20.375Z,94896.75
2023-03-03T14:22:20.123Z,94879.38
2023-03-03T14:25:08.562Z,94896.78
2023-03-03T14:28:01.095Z,94903.81
2023-03-03T14:30:29.434Z,94878.81
2023-03-03T14:33:19.364Z,94882.81
2023-03-03T14:36:04.505Z,94867.47
2023-03-03T14:38:34.417Z,94887.91
2023-03-03T14:41:14.398Z,94889.84
2023-03-03T14:43:44.123Z,94881.44
2023-03-03T14:46:30.487Z,94893.41
2023-03-03T14:49:05.411Z,94893.53
2023-03-03T14:51:48.136Z,94909.53
2023-03-03T14:54:28.420Z,94893.53
2023-03-03T14:57:15.290Z,94881.59
2023-03-03T15:00:06.920Z,94898.09
2023-03-03T15:02:52.092Z,94890.69
2023-03-03T15:05:28.767Z,94883.66
2023-03-03T15:07:58.964Z,94892.75
2023-03-03T15:10:44.368Z,94894.72
2023-03-03T15:13:19.905Z,94877.75
2023-03-03T15:16:01.057Z,94884.16
2023-03-03T15:18:32.525Z,94883.59
2023-03-03T15:21:07.808Z,94888.31
2023-03-03T15:23:43.690Z,94873.94
2023-03-03T15:26:19.972Z,94874.72
2023-03-03T15:28:59.703Z,94860.78
2023-03-03T15:31:51.077Z,94885.34
2023-03-03T15:34:29.998Z,94892.09
2023-03-03T15:37:08.740Z,94873.31
2023-03-03T15:39:50.011Z,94879.94
2023-03-03T15:42:40.175Z,94870.50
2023-03-03T15:45:31.973Z,94868.13
2023-03-03T15:48:10.953Z,94878.38
2023-03-03T15:50:57.022Z,94874.69
2023-03-03T15:53:32.949Z,94890.34
2023-03-03T15:56:06.466Z,94881.22
2023-03-03T15:58:36.548Z,94872.59
2023-03-03T16:01:31.822Z,94884.22
2023-03-03T16:04:10.461Z,94888.69
2023-03-03T16:06:38.272Z,94876.88
2023-03-03T16:09:17.039Z,94881.97
2023-03-03T16:11:58.074Z,94875.84
2023-03-03T16:14:52.750Z,94876.63
2023-03-03T16:17:25.946Z,94875.53
2023-03-03T16:20:15.913Z,94861.97
2023-03-03T16:23:14.342Z,94875.34
2023-03-03T16:25:43.675Z,94878.25
2023-03-03T16:28:14.446Z,94891.44
2023-03-03T16:30:53.984Z,94889.84
2023-03-03T16:33:44.991Z,94864.25
2023-03-03T16:36:17.525Z,94870.28
2023-03-03T16:38:57.321Z,94889.78
2023-03-03T16:41:47.334Z,94893.91
2023-03-03T16:44:35.789Z,94888.56
2023-03-03T16:47:40.462Z,94902.47
2023-03-03T16:50:26.404Z,94907.56
2023-03-03T16:53:19.293Z,94900.00
2023-03-03T16:56:02.137Z,94900.69
2023-03-03T16:58:37.874Z,94902.56
2023-03-03T17:01:04.671Z,94917.00
2023-03-03T17:03:40.258Z,94900.63
2023-03-03T17:06:21.097Z,94915.66
2023-03-03T17:09:05.994Z,94901.75
2023-03-03T17:12:00.822Z,94920.78
2023-03-03T17:14:49.750Z,94916.81
2023-03-03T17:17:51.120Z,94925.19
2023-03-03T17:20:26.990Z,94937.06
2023-03-03T17:23:21.163Z,94930.28
2023-03-03T17:26:10.252Z,94924.97
2023-03-03T17:28:55.905Z,94928.09
2023-03-03T17:31:38.059Z,94939.56
2023-03-03T17:34:08.894Z,94931.25
2023-03-03T17:36:50.170Z,94922.13
2023-03-03T17:39:28.912Z,94932.13
2023-03-03T17:42:06.484Z,94931.69
2023-03-03T17:44:48.381Z,94956.81
2023-03-03T17:47:47.335Z,94967.84
2023-03-03T17:50:29.045Z,94952.88
2023-03-03T17:53:07.789Z,94950.72
2023-03-03T17:55:53.499Z,94947.00
2023-03-03T17:58:42.760Z,94949.13
2023-03-03T18:01:53.740Z,94939.25
2023-03-03T18:05:01.672Z,94952.41
2023-03-03T18:07:47.434Z,94974.56
2023-03-03T18:10:26.413Z,94957.88
2023-03-03T18:13:24.602Z,94969.34
2023-03-03T18:16:11.499Z,94991.63
2023-03-03T18:19:07.018Z,95008.72
2023-03-03T18:21:51.907Z,95001.69
2023-03-03T18:24:36.926Z,95006.34
2023-03-03T18:27:40.401Z,94995.09
2023-03-03T18:30:24.991Z,94987.91
2023-03-03T18:32:57.818Z,94992.72
2023-03-03T18:35:34.896Z,94992.09
2023-03-03T18:38:23.509Z,95000.97
2023-03-03T18:41:00.949Z,94998.25
2023-03-03T18:43:40.272Z,95012.88
2023-03-03T18:46:25.309Z,95015.13
2023-03-03T18:49:03.620Z,95003.44
2023-03-03T18:51:39.648Z,95016.59
2023-03-03T18:54:12.445Z,95009.72
2023-03-03T18:56:46.314Z,95009.75
2023-03-03T18:59:31.265Z,95020.50
2023-03-03T19:02:29.701Z,95018.16
2023-03-03T19:05:08.934Z,95018.63
2023-03-03T19:08:01.060Z,95021.47
2023-03-03T19:10:39.764Z,95026.19
2023-03-03T19:13:47.037Z,95024.94
2023-03-03T19:16:25.769Z,95033.94
2023-03-03T19:18:52.630Z,95034.88
2023-03-03T19:21:28.405Z,95017.19
2023-03-03T19:24:06.219Z,95033.78
2023-03-03T19:26:55.771Z,95031.50
2023-03-03T19:29:25.557Z,95033.13
2023-03-03T19:32:13.886Z,95041.50
2023-03-03T19:34:46.817Z,95046.56
2023-03-03T19:37:23.089Z,95040.84
2023-03-03T19:40:03.067Z,95041.34
2023-03-03T19:42:58.726Z,95046.00
2023-03-03T19:45:37.891Z,95033.00
2023-03-03T19:48:16.210Z,95037.53
2023-03-03T19:50:50.710Z,95044.13
2023-03-03T19:53:39.624Z,95045.47
2023-03-03T19:56:15.104Z,95046.06
2023-03-03T19:59:13.729Z,95057.16
2023-03-03T20:01:50.874Z,95051.44
2023-03-03T20:04:44.464Z,95051.94
2023-03-03T20:07:15.879Z,95051.72
2023-03-03T20:09:55.700Z,95055.31
2023-03-03T20:13:07.034Z,95066.53
2023-03-03T20:15:54.826Z,95031.75
2023-03-03T20:18:58.918Z,95037.88
2023-03-03T20:21:33.500Z,95058.81
2023-03-03T20:24:18.708Z,95050.28
2023-03-03T20:26:58.379Z,95044.91
2023-03-03T20:29:45.065Z,95026.78
2023-03-03T20:32:55.134Z,95036.28
2023-03-03T20:35:47.572Z,95041.09
2023-03-03T20:38:14.230Z,95045.88
2023-03-03T20:41:08.668Z,95065.63
2023-03-03T20:43:58.631Z,95072.00
2023-03-03T20:46:38.615Z,95066.00
2023-03-03T20:49:45.157Z,95049.38
2023-03-03T20:52:31.113Z,95062.75
2023-03-03T20:55:13.548Z,95074.31
2023-03-03T20:58:00.846Z,95069.34
2023-03-03T21:00:51.474Z,95069.94
2023-03-03T21:03:34.979Z,95074.16
2023-03-03T21:06:09.856Z,95070.19
2023-03-03T21:08:42.774Z,95070.00
2023-03-03T21:11:10.538Z,95080.34
2023-03-03T21:13:44.062Z,95059.44
2023-03-03T21:16:25.813Z,95062.53
2023-03-03T21:19:01.544Z,95051.88
2023-03-03T21:21:30.444Z,95075.75
2023-03-03T21:23:59.098Z,95080.75
2023-03-03T21:26:46.909Z,95088.63
2023-03-03T21:29:28.873Z,95080.38
2023-03-03T21:32:04.559Z,95077.16
2023-03-03T21:34:33.933Z,95069.81
2023-03-03T21:37:17.201Z,95036.34
2023-03-03T21:39:44.605Z,95024.47
2023-03-03T21:42:14.515Z,95025.38
2023-03-03T21:44:46.726Z,95038.41
2023-03-03T21:47:15.627Z,95040.84
2023-03-03T21:49:43.647Z,95028.81
2023-03-03T21:52:12.590Z,95046.25
2023-03-03T21:54:40.530Z,95046.38
2023-03-03T21:57:07.988Z,95048.63
2023-03-03T21:59:34.694Z,95057.94
2023-03-03T22:02:01.478Z,95064.44
2023-03-03T22:04:28.260Z,95071.94
2023-03-03T22:06:55.853Z,95070.59
2023-03-03T22:09:23.101Z,95073.25
2023-03-03T22:11:49.835Z,95035.03
2023-03-03T22:14:16.642Z,95042.84
2023-03-03T22:16:43.804Z,95039.59
2023-03-03T22:19:11.127Z,95027.84
2023-03-03T22:21:39.680Z,95053.00
2023-03-03T22:24:08.186Z,95051.78
2023-03-03T22:26:35.437Z,95062.47
2023-03-03T22:29:02.482Z,95061.88
2023-03-03T22:31:29.335Z,95056.97
2023-03-03T22:33:56.207Z,95056.66
2023-03-03T22:36:23.576Z,95068.31
2023-03-03T22:38:50.465Z,95066.59
2023-03-03T22:41:17.679Z,95070.13
2023-03-03T22:43:44.563Z,95070.13
2023-03-03T22:46:11.835Z,95063.72
2023-03-03T22:48:39.166Z,95071.53
2023-03-03T22:51:06.798Z,95066.00
2023-03-03T22:53:33.825Z,95074.44
2023-03-03T22:56:00.636Z,95073.59
2023-03-03T22:58:27.512Z,95082.78
2023-03-03T23:00:54.951Z,95081.97
2023-03-03T23:03:21.914Z,95078.97
2023-03-03T23:05:51.477Z,95068.25
2023-03-03T23:08:20.324Z,95047.69
2023-03-03T23:10:47.595Z,95042.69
2023-03-03T23:13:14.478Z,95043.63
2023-03-03T23:15:41.349Z,95042.78
2023-03-03T23:18:08.805Z,95060.66
2023-03-03T23:20:35.719Z,95074.69
2023-03-03T23:23:03.039Z,95064.44
2023-03-03T23:25:30.306Z,95061.84
2023-03-03T23:27:57.610Z,95063.94
2023-03-03T23:30:25.255Z,95072.81
2023-03-03T23:32:52.393Z,95057.50
2023-03-03T23:35:19.636Z,95047.88
2023-03-03T23:37:46.524Z,95047.88
2023-03-03T23:40:15.802Z,95050.66
2023-03-03T23:42:43.591Z,95064.94
2023-03-03T23:45:11.621Z,95068.06
2023-03-03T23:47:38.642Z,95069.50
2023-03-03T23:50:06.229Z,95073.47
2023-03-03T23:52:33.056Z,95060.88
2023-03-03T23:54:59.921Z,95058.00
2023-03-03T23:57:26.830Z,95051.78
2023-03-03T23:59:53.604Z,95059.09
